createdAt,value
2023-10-20T00:00:19.925Z,22.87
2023-10-20T00:02:48.657Z,24.77
2023-10-20T00:05:18.508Z,24.10
2023-10-20T00:07:47.237Z,22.23
2023-10-20T00:10:15.625Z,23.27
2023-10-20T00:12:44.210Z,24.03
2023-10-20T00:15:16.378Z,23.60
2023-10-20T00:17:45.994Z,26.57
2023-10-20T00:20:14.683Z,24.73
2023-10-20T00:22:44.999Z,25.73
2023-10-20T00:25:13.643Z,31.17
2023-10-20T00:27:42.819Z,25.30
2023-10-20T00:30:12.647Z,27.03
2023-10-20T00:32:42.464Z,26.23
2023-10-20T00:35:14.875Z,26.23
2023-10-20T00:37:45.143Z,28.97
2023-10-20T00:40:14.061Z,27.23
2023-10-20T00:42:42.713Z,29.90
2023-10-20T00:45:12.436Z,27.00
2023-10-20T00:47:42.212Z,30.97
2023-10-20T00:50:13.200Z,33.50
2023-10-20T00:52:43.232Z,32.23
2023-10-20T00:55:13.891Z,31.77
2023-10-20T00:57:42.478Z,29.70
2023-10-20T01:00:12.058Z,29.23
2023-10-20T01:02:40.657Z,30.07
2023-10-20T01:05:10.103Z,27.57
2023-10-20T01:07:38.720Z,30.17
2023-10-20T01:10:07.851Z,28.07
2023-10-20T01:12:38.220Z,28.40
2023-10-20T01:15:07.732Z,31.97
2023-10-20T01:17:36.917Z,29.40
2023-10-20T01:20:07.336Z,31.40
2023-10-20T01:22:36.273Z,29.00
2023-10-20T01:25:06.659Z,28.80
2023-10-20T01:27:35.034Z,29.00
2023-10-20T01:30:03.428Z,30.30
2023-10-20T01:32:31.854Z,32.50
2023-10-20T01:35:00.391Z,28.17
2023-10-20T01:37:29.082Z,28.07
2023-10-20T01:39:57.730Z,31.27
2023-10-20T01:42:27.615Z,30.80
2023-10-20T01:44:55.948Z,29.77
2023-10-20T01:47:24.379Z,27.40
2023-10-20T01:49:53.024Z,28.03
2023-10-20T01:52:21.467Z,28.47
2023-10-20T01:54:49.804Z,28.47
2023-10-20T01:57:18.446Z,32.73
2023-10-20T01:59:49.686Z,28.23
2023-10-20T02:02:18.539Z,30.63
2023-10-20T02:04:46.975Z,28.40
2023-10-20T02:07:15.342Z,29.47
2023-10-20T02:09:43.957Z,31.27
2023-10-20T02:12:12.587Z,26.43
2023-10-20T02:14:40.897Z,25.93
2023-10-20T02:17:11.530Z,28.37
2023-10-20T02:19:39.905Z,29.63
2023-10-20T02:22:08.248Z,28.70
2023-10-20T02:24:37.490Z,25.20
2023-10-20T02:27:06.673Z,26.27
2023-10-20T02:29:35.275Z,24.20
2023-10-20T02:32:03.975Z,24.60
2023-10-20T02:34:34.614Z,25.43
2023-10-20T02:37:04.113Z,27.73
2023-10-20T02:39:32.535Z,25.47
2023-10-20T02:42:00.868Z,23.10
2023-10-20T02:44:31.515Z,21.80
2023-10-20T02:47:00.175Z,23.40
2023-10-20T02:49:28.527Z,27.60
2023-10-20T02:51:58.415Z,23.97
2023-10-20T02:54:26.750Z,26.17
2023-10-20T02:56:57.315Z,21.20
2023-10-20T02:59:25.777Z,21.07
2023-10-20T03:01:57.339Z,23.30
2023-10-20T03:04:26.050Z,23.00
2023-10-20T03:06:54.580Z,24.77
2023-10-20T03:09:24.511Z,21.37
2023-10-20T03:11:52.841Z,22.83
2023-10-20T03:14:21.233Z,23.30
2023-10-20T03:16:49.662Z,22.53
2023-10-20T03:19:17.998Z,21.10
2023-10-20T03:21:46.595Z,24.23
2023-10-20T03:24:14.938Z,22.10
2023-10-20T03:26:45.346Z,22.17
2023-10-20T03:29:13.959Z,21.00
2023-10-20T03:31:43.335Z,21.40
2023-10-20T03:34:11.731Z,22.37
2023-10-20T03:36:40.327Z,20.83
2023-10-20T03:39:21.543Z,20.20
2023-10-20T03:41:52.079Z,20.30
2023-10-20T03:44:22.628Z,21.60
2023-10-20T03:46:51.311Z,24.37
2023-10-20T03:49:20.122Z,21.17
2023-10-20T03:51:50.801Z,19.10
2023-10-20T03:54:20.354Z,25.17
2023-10-20T03:56:48.845Z,21.50
2023-10-20T03:59:18.724Z,20.90
2023-10-20T04:01:47.282Z,19.70
2023-10-20T04:04:18.038Z,22.70
2023-10-20T04:06:46.866Z,21.67
2023-10-20T04:09:15.356Z,22.20
2023-10-20T04:11:43.746Z,21.37
2023-10-20T04:14:13.674Z,21.50
2023-10-20T04:16:43.722Z,22.47
2023-10-20T04:19:16.110Z,21.70
2023-10-20T04:21:45.636Z,26.43
2023-10-20T04:24:14.082Z,20.60
2023-10-20T04:26:44.015Z,20.87
2023-10-20T04:29:35.237Z,22.30
2023-10-20T04:32:23.174Z,24.37
2023-10-20T04:35:09.493Z,21.03
2023-10-20T04:37:55.763Z,20.43
2023-10-20T04:40:41.621Z,22.60
2023-10-20T04:43:27.658Z,21.10
2023-10-20T04:46:16.985Z,19.87
2023-10-20T04:49:17.699Z,24.00
2023-10-20T04:51:59.959Z,19.07
2023-10-20T04:54:44.770Z,22.47
2023-10-20T04:57:40.322Z,21.67
2023-10-20T05:00:27.691Z,19.17
2023-10-20T05:03:15.989Z,20.07
2023-10-20T05:05:54.678Z,18.80
2023-10-20T05:08:24.984Z,18.70
2023-10-20T05:10:55.490Z,18.03
2023-10-20T05:13:24.813Z,19.00
2023-10-20T05:15:53.483Z,20.10
2023-10-20T05:18:22.187Z,20.63
2023-10-20T05:20:51.980Z,19.07
2023-10-20T05:23:20.564Z,18.17
2023-10-20T05:25:49.473Z,22.77
2023-10-20T05:28:19.033Z,17.40
2023-10-20T05:30:48.034Z,18.53
2023-10-20T05:33:17.112Z,17.00
2023-10-20T05:35:46.337Z,17.80
2023-10-20T05:38:16.240Z,16.50
2023-10-20T05:40:44.903Z,15.70
2023-10-20T05:43:13.289Z,16.50
2023-10-20T05:45:42.205Z,16.13
2023-10-20T05:48:11.031Z,14.90
2023-10-20T05:50:41.042Z,13.13
2023-10-20T05:53:12.268Z,15.50
2023-10-20T05:55:42.353Z,14.27
2023-10-20T05:58:10.733Z,16.33
2023-10-20T06:00:59.340Z,13.93
2023-10-20T06:03:27.549Z,11.73
2023-10-20T06:06:00.330Z,12.33
2023-10-20T06:08:30.302Z,11.60
2023-10-20T06:11:04.283Z,11.43
2023-10-20T06:13:34.309Z,10.70
2023-10-20T06:16:10.913Z,10.20
2023-10-20T06:18:40.653Z,10.17
2023-10-20T06:21:09.714Z,11.60
2023-10-20T06:23:38.417Z,25.53
2023-10-20T06:26:08.322Z,12.63
2023-10-20T06:28:36.701Z,13.27
2023-10-20T06:31:26.237Z,9.87
2023-10-20T06:34:01.675Z,10.23
2023-10-20T06:36:31.303Z,10.00
2023-10-20T06:38:59.592Z,9.03
2023-10-20T06:41:29.763Z,14.77
2023-10-20T06:43:58.331Z,8.03
2023-10-20T06:46:28.570Z,7.53
2023-10-20T06:48:58.122Z,8.20
2023-10-20T06:51:27.428Z,7.10
2023-10-20T06:53:58.033Z,23.03
2023-10-20T06:56:28.666Z,6.83
2023-10-20T06:58:58.831Z,7.23
2023-10-20T07:01:28.409Z,6.90
2023-10-20T07:03:57.079Z,9.00
2023-10-20T07:06:25.482Z,10.60
2023-10-20T07:08:54.084Z,6.50
2023-10-20T07:11:25.594Z,5.90
2023-10-20T07:13:56.479Z,5.33
2023-10-20T07:16:26.320Z,5.40
2023-10-20T07:18:55.888Z,4.60
2023-10-20T07:21:24.353Z,5.50
2023-10-20T07:23:53.572Z,5.50
2023-10-20T07:26:22.388Z,4.57
2023-10-20T07:28:50.783Z,4.40
2023-10-20T07:34:12.322Z,4.20
2023-10-20T07:36:41.839Z,4.40
2023-10-20T07:39:10.988Z,4.13
2023-10-20T07:41:39.620Z,4.50
2023-10-20T07:44:10.429Z,5.07
2023-10-20T07:46:38.796Z,4.53
2023-10-20T07:49:07.091Z,4.73
2023-10-20T07:51:36.785Z,4.30
2023-10-20T07:54:05.600Z,4.43
2023-10-20T07:56:33.992Z,4.57
2023-10-20T07:59:02.421Z,4.40
2023-10-20T08:01:31.009Z,4.50
2023-10-20T08:03:59.906Z,5.17
2023-10-20T08:06:29.066Z,4.93
2023-10-20T08:08:59.298Z,4.77
2023-10-20T08:11:27.619Z,4.23
2023-10-20T08:13:56.564Z,4.20
2023-10-20T08:16:25.216Z,4.53
2023-10-20T08:18:54.427Z,4.27
2023-10-20T08:21:27.291Z,7.83
2023-10-20T08:23:55.762Z,4.37
2023-10-20T08:26:25.393Z,4.87
2023-10-20T08:28:53.981Z,4.40
2023-10-20T08:31:23.491Z,5.60
2023-10-20T08:33:53.500Z,4.30
2023-10-20T08:36:23.043Z,5.13
2023-10-20T08:38:52.561Z,4.20
2023-10-20T08:41:22.899Z,3.87
2023-10-20T08:43:53.235Z,4.23
2023-10-20T08:46:23.855Z,107.67
2023-10-20T08:48:52.259Z,4.43
2023-10-20T08:51:20.834Z,4.20
2023-10-20T08:53:50.000Z,4.93
2023-10-20T08:56:18.399Z,3.67
2023-10-20T08:58:50.019Z,4.73
2023-10-20T09:01:19.815Z,4.93
2023-10-20T09:03:50.451Z,3.60
2023-10-20T09:06:18.890Z,3.30
2023-10-20T09:08:51.821Z,3.07
2023-10-20T09:11:26.153Z,3.43
2023-10-20T09:13:54.552Z,3.37
2023-10-20T09:16:24.507Z,2.93
2023-10-20T09:18:54.964Z,3.00
2023-10-20T09:21:25.662Z,4.07
2023-10-20T09:23:58.056Z,2.97
2023-10-20T09:26:27.803Z,3.00
2023-10-20T09:28:58.571Z,2.80
2023-10-20T09:31:31.330Z,3.83
2023-10-20T09:33:59.916Z,3.50
2023-10-20T09:36:28.805Z,3.23
2023-10-20T09:38:59.143Z,3.73
2023-10-20T09:41:29.247Z,2.70
2023-10-20T09:44:07.285Z,2.50
2023-10-20T09:46:48.901Z,3.60
2023-10-20T09:49:17.925Z,2.93
2023-10-20T09:51:47.524Z,2.00
2023-10-20T09:54:16.767Z,2.70
2023-10-20T09:56:46.718Z,1.90
2023-10-20T09:59:19.760Z,3.07
2023-10-20T10:01:50.184Z,2.30
2023-10-20T10:04:25.216Z,3.03
2023-10-20T10:06:54.293Z,2.00
2023-10-20T10:09:23.062Z,2.43
2023-10-20T10:11:52.398Z,1.63
2023-10-20T10:14:21.736Z,2.13
2023-10-20T10:16:55.231Z,1.67
2023-10-20T10:19:26.271Z,1.80
2023-10-20T10:21:55.920Z,2.00
2023-10-20T10:24:25.094Z,1.83
2023-10-20T10:26:56.027Z,1.60
2023-10-20T10:29:39.515Z,1.93
2023-10-20T10:32:14.193Z,1.83
2023-10-20T10:34:43.342Z,1.90
2023-10-20T10:37:11.926Z,1.67
2023-10-20T10:39:40.337Z,2.70
2023-10-20T10:42:09.096Z,1.83
2023-10-20T10:44:41.186Z,1.90
2023-10-20T10:47:20.541Z,4.53
2023-10-20T10:49:53.276Z,1.70
2023-10-20T10:52:21.676Z,3.70
2023-10-20T10:54:54.216Z,1.53
2023-10-20T10:57:22.707Z,1.97
2023-10-20T10:59:51.607Z,2.40
2023-10-20T11:02:20.389Z,4.43
2023-10-20T11:04:50.276Z,3.40
2023-10-20T11:07:18.850Z,2.57
2023-10-20T11:09:47.546Z,2.97
2023-10-20T11:12:18.954Z,1.47
2023-10-20T11:14:50.177Z,1.40
2023-10-20T11:17:18.784Z,1.50
2023-10-20T11:19:47.582Z,1.43
2023-10-20T11:22:18.248Z,2.10
2023-10-20T11:24:53.886Z,1.53
2023-10-20T11:27:23.889Z,1.73
2023-10-20T11:29:59.079Z,2.30
2023-10-20T11:32:28.352Z,1.60
2023-10-20T11:34:57.065Z,2.83
2023-10-20T11:37:27.474Z,1.23
2023-10-20T11:39:57.122Z,1.37
2023-10-20T11:42:26.057Z,1.63
2023-10-20T11:44:56.674Z,1.20
2023-10-20T11:47:25.374Z,1.87
2023-10-20T11:49:55.957Z,3.20
2023-10-20T11:52:25.334Z,1.70
2023-10-20T11:54:55.340Z,1.93
2023-10-20T11:57:23.824Z,1.70
2023-10-20T11:59:53.133Z,1.57
2023-10-20T12:02:24.063Z,1.57
2023-10-20T12:04:52.725Z,1.60
2023-10-20T12:07:21.600Z,1.37
2023-10-20T12:09:51.016Z,2.33
2023-10-20T12:12:21.186Z,5.17
2023-10-20T12:14:49.891Z,1.83
2023-10-20T12:17:19.021Z,1.30
2023-10-20T12:19:50.088Z,2.00
2023-10-20T12:22:19.517Z,1.40
2023-10-20T12:24:47.898Z,1.90
2023-10-20T12:27:16.362Z,1.90
2023-10-20T12:29:46.160Z,1.70
2023-10-20T12:32:14.859Z,1.80
2023-10-20T12:34:43.729Z,1.40
2023-10-20T12:37:12.174Z,1.33
2023-10-20T12:39:41.643Z,1.83
2023-10-20T12:42:10.239Z,4.50
2023-10-20T12:44:40.084Z,1.90
2023-10-20T12:47:10.172Z,2.50
2023-10-20T12:49:38.622Z,1.70
2023-10-20T12:52:07.604Z,2.07
2023-10-20T12:54:36.144Z,2.10
2023-10-20T12:57:04.728Z,1.80
2023-10-20T12:59:33.202Z,1.80
2023-10-20T13:02:01.645Z,2.10
2023-10-20T13:04:31.804Z,4.57
2023-10-20T13:07:01.755Z,1.67
2023-10-20T13:09:30.373Z,2.10
2023-10-20T13:11:59.607Z,3.40
2023-10-20T13:14:28.190Z,1.13
2023-10-20T13:16:58.437Z,2.13
2023-10-20T13:19:27.134Z,2.03
2023-10-20T13:21:58.582Z,1.80
2023-10-20T13:24:28.232Z,1.60
2023-10-20T13:26:56.795Z,1.70
2023-10-20T13:29:25.202Z,1.50
2023-10-20T13:31:53.774Z,1.73
2023-10-20T13:34:22.405Z,1.40
2023-10-20T13:36:50.843Z,1.23
2023-10-20T13:39:31.504Z,1.07
2023-10-20T13:42:00.113Z,2.10
2023-10-20T13:44:28.503Z,1.43
2023-10-20T13:46:56.895Z,2.00
2023-10-20T13:49:25.197Z,2.40
2023-10-20T13:51:53.598Z,1.67
2023-10-20T13:54:23.357Z,1.47
2023-10-20T14:00:21.612Z,1.60
2023-10-20T14:02:50.185Z,1.50
2023-10-20T14:05:20.475Z,1.13
2023-10-20T14:07:49.097Z,1.80
2023-10-20T14:10:19.966Z,1.80
2023-10-20T14:12:48.466Z,2.00
2023-10-20T14:15:17.149Z,1.70
2023-10-20T14:17:45.694Z,1.90
2023-10-20T14:20:14.171Z,2.00
2023-10-20T14:22:42.868Z,1.90
2023-10-20T14:25:11.802Z,1.90
2023-10-20T14:27:41.580Z,1.97
2023-10-20T14:30:10.370Z,2.00
2023-10-20T14:32:38.884Z,2.20
2023-10-20T14:35:08.200Z,2.40
2023-10-20T14:37:36.771Z,2.70
2023-10-20T14:40:05.430Z,3.47
2023-10-20T14:42:33.868Z,2.90
2023-10-20T14:45:04.647Z,3.33
2023-10-20T14:47:33.345Z,3.37
2023-10-20T14:50:02.306Z,3.00
2023-10-20T14:52:30.715Z,2.97
2023-10-20T14:54:59.457Z,3.10
2023-10-20T14:57:29.068Z,3.83
2023-10-20T14:59:57.660Z,3.83
2023-10-20T15:02:28.143Z,3.70
2023-10-20T15:04:59.684Z,3.40
2023-10-20T15:07:29.817Z,4.30
2023-10-20T15:09:58.286Z,3.57
2023-10-20T15:12:27.567Z,4.50
2023-10-20T15:14:56.239Z,5.13
2023-10-20T15:17:24.794Z,4.23
2023-10-20T15:19:57.230Z,5.90
2023-10-20T15:22:26.433Z,4.97
2023-10-20T15:24:55.605Z,5.00
2023-10-20T15:27:24.186Z,4.70
2023-10-20T15:29:52.691Z,5.10
2023-10-20T15:32:22.920Z,4.33
2023-10-20T15:34:55.088Z,5.30
2023-10-20T15:37:26.281Z,5.30
2023-10-20T15:40:04.123Z,4.83
2023-10-20T15:42:43.902Z,5.40
2023-10-20T15:45:12.923Z,6.67
2023-10-20T15:47:41.514Z,5.53
2023-10-20T15:50:13.407Z,5.90
2023-10-20T15:52:42.223Z,5.47
2023-10-20T15:55:10.663Z,5.13
2023-10-20T15:57:40.931Z,5.30
2023-10-20T16:00:10.259Z,5.63
2023-10-20T16:02:39.996Z,5.67
2023-10-20T16:05:11.309Z,5.37
2023-10-20T16:07:41.131Z,6.50
2023-10-20T16:10:10.839Z,5.40
2023-10-20T16:12:41.402Z,6.37
2023-10-20T16:15:14.153Z,7.07
2023-10-20T16:17:42.633Z,6.40
2023-10-20T16:20:14.840Z,5.67
2023-10-20T16:22:45.958Z,7.20
2023-10-20T16:25:14.318Z,6.87
2023-10-20T16:27:44.092Z,7.20
2023-10-20T16:30:14.066Z,6.93
2023-10-20T16:32:44.581Z,7.20
2023-10-20T16:35:13.607Z,8.30
2023-10-20T16:37:42.228Z,8.83
2023-10-20T16:40:15.478Z,7.63
2023-10-20T16:42:44.640Z,7.47
2023-10-20T16:45:13.383Z,6.97
2023-10-20T16:47:44.297Z,8.77
2023-10-20T16:50:12.760Z,8.13
2023-10-20T16:52:41.267Z,7.87
2023-10-20T16:55:10.182Z,7.60
2023-10-20T16:57:40.313Z,7.70
2023-10-20T17:00:09.240Z,8.20
2023-10-20T17:02:37.962Z,10.37
2023-10-20T17:05:07.257Z,10.97
2023-10-20T17:07:35.762Z,10.30
2023-10-20T17:10:06.040Z,10.77
2023-10-20T17:12:34.465Z,12.70
2023-10-20T17:15:05.225Z,11.07
2023-10-20T17:17:34.147Z,10.20
2023-10-20T17:20:02.842Z,10.97
2023-10-20T17:22:31.477Z,9.77
2023-10-20T17:24:59.864Z,11.03
2023-10-20T17:27:28.208Z,10.17
2023-10-20T17:29:57.670Z,10.47
2023-10-20T17:32:27.851Z,10.63
2023-10-20T17:34:56.280Z,11.90
2023-10-20T17:37:24.971Z,12.50
2023-10-20T17:39:53.599Z,12.27
2023-10-20T17:42:24.085Z,11.53
2023-10-20T17:44:52.561Z,12.67
2023-10-20T17:47:21.150Z,14.83
2023-10-20T17:49:51.860Z,14.20
2023-10-20T17:52:20.324Z,12.73
2023-10-20T17:54:49.010Z,15.10
2023-10-20T17:57:17.499Z,17.00
2023-10-20T17:59:46.104Z,15.83
2023-10-20T18:02:14.646Z,21.53
2023-10-20T18:04:43.174Z,18.10
2023-10-20T18:07:13.569Z,16.60
2023-10-20T18:09:41.961Z,14.63
2023-10-20T18:12:10.438Z,13.93
2023-10-20T18:14:39.142Z,14.30
2023-10-20T18:17:07.601Z,14.80
2023-10-20T18:19:36.378Z,16.37
2023-10-20T18:22:05.144Z,20.33
2023-10-20T18:24:35.211Z,17.60
2023-10-20T18:27:04.136Z,15.33
2023-10-20T18:29:32.751Z,14.10
2023-10-20T18:32:01.171Z,13.53
2023-10-20T18:34:29.815Z,12.97
2023-10-20T18:36:58.511Z,12.50
2023-10-20T18:39:27.299Z,12.50
2023-10-20T18:41:57.458Z,12.47
2023-10-20T18:44:26.165Z,13.57
2023-10-20T18:46:54.845Z,14.40
2023-10-20T18:49:24.420Z,15.17
2023-10-20T18:51:54.023Z,13.83
2023-10-20T18:54:22.424Z,15.17
2023-10-20T18:56:51.064Z,17.30
2023-10-20T18:59:20.877Z,16.33
2023-10-20T19:01:49.574Z,16.40
2023-10-20T19:04:17.950Z,17.07
2023-10-20T19:06:47.171Z,16.50
2023-10-20T19:09:15.577Z,16.73
2023-10-20T19:11:44.376Z,16.50
2023-10-20T19:14:12.816Z,17.13
2023-10-20T19:16:42.818Z,18.33
2023-10-20T19:19:13.662Z,16.87
2023-10-20T19:21:45.330Z,17.47
2023-10-20T19:24:15.281Z,17.00
2023-10-20T19:26:45.241Z,16.03
2023-10-20T19:29:13.938Z,16.40
2023-10-20T19:31:43.751Z,17.30
2023-10-20T19:34:12.403Z,16.70
2023-10-20T19:36:41.137Z,15.87
2023-10-20T19:39:10.651Z,15.33
2023-10-20T19:41:40.893Z,15.40
2023-10-20T19:44:10.450Z,15.67
2023-10-20T19:47:11.288Z,17.47
2023-10-20T19:49:41.486Z,14.67
2023-10-20T19:52:09.992Z,14.90
2023-10-20T19:54:39.165Z,14.63
2023-10-20T19:57:10.759Z,14.10
2023-10-20T19:59:40.060Z,14.43
2023-10-20T20:02:08.924Z,15.20
2023-10-20T20:04:37.365Z,15.83
2023-10-20T20:07:07.308Z,15.77
2023-10-20T20:09:35.863Z,16.23
2023-10-20T20:12:06.701Z,19.07
2023-10-20T20:14:35.448Z,16.23
2023-10-20T20:17:04.434Z,15.93
2023-10-20T20:19:32.832Z,14.93
2023-10-20T20:22:01.194Z,14.53
2023-10-20T20:24:30.898Z,14.77
2023-10-20T20:27:02.125Z,15.67
2023-10-20T20:29:30.908Z,15.23
2023-10-20T20:31:59.300Z,14.67
2023-10-20T20:34:28.057Z,14.27
2023-10-20T20:36:56.654Z,17.60
2023-10-20T20:39:26.517Z,14.93
2023-10-20T20:41:56.538Z,14.50
2023-10-20T20:44:25.059Z,14.70
2023-10-20T20:46:53.433Z,15.33
2023-10-20T20:49:22.716Z,14.43
2023-10-20T20:51:51.655Z,14.43
2023-10-20T20:54:21.257Z,14.17
2023-10-20T20:56:49.900Z,13.50
2023-10-20T20:59:20.062Z,13.13
2023-10-20T21:01:48.513Z,13.03
2023-10-20T21:04:17.276Z,12.67
2023-10-20T21:06:48.449Z,11.50
2023-10-20T21:09:16.901Z,12.03
2023-10-20T21:11:45.308Z,12.43
2023-10-20T21:14:13.967Z,12.40
2023-10-20T21:16:43.677Z,11.30
2023-10-20T21:19:12.269Z,11.40
2023-10-20T21:21:40.601Z,11.17
2023-10-20T21:24:09.365Z,10.70
2023-10-20T21:26:38.025Z,10.23
2023-10-20T21:29:06.823Z,10.53
2023-10-20T21:31:37.417Z,10.30
2023-10-20T21:34:07.349Z,9.80
2023-10-20T21:36:35.618Z,16.40
2023-10-20T21:39:07.003Z,9.07
2023-10-20T21:41:35.440Z,22.97
2023-10-20T21:44:05.990Z,21.17
2023-10-20T21:46:35.655Z,17.50
2023-10-20T21:49:04.086Z,14.33
2023-10-20T21:51:34.018Z,16.03
2023-10-20T21:54:03.073Z,21.50
2023-10-20T21:56:31.870Z,12.53
2023-10-20T21:59:00.233Z,20.83
2023-10-20T22:01:28.828Z,20.23
2023-10-20T22:03:57.418Z,17.70
2023-10-20T22:06:26.015Z,14.57
2023-10-20T22:08:55.948Z,16.90
2023-10-20T22:11:24.641Z,14.10
2023-10-20T22:13:52.981Z,20.00
2023-10-20T22:16:21.364Z,13.10
2023-10-20T22:18:50.861Z,13.33
2023-10-20T22:21:19.528Z,12.80
2023-10-20T22:23:48.317Z,11.00
2023-10-20T22:26:18.049Z,10.93
2023-10-20T22:28:46.588Z,9.10
2023-10-20T22:31:15.267Z,8.30
2023-10-20T22:33:43.686Z,7.90
2023-10-20T22:36:12.367Z,8.07
2023-10-20T22:38:40.975Z,9.87
2023-10-20T22:41:09.290Z,8.57
2023-10-20T22:43:39.238Z,7.47
2023-10-20T22:46:07.822Z,7.53
2023-10-20T22:48:36.511Z,10.67
2023-10-20T22:51:05.142Z,7.57
2023-10-20T22:53:34.385Z,8.77
2023-10-20T22:56:02.676Z,9.63
2023-10-20T22:58:31.119Z,6.90
2023-10-20T23:01:00.794Z,9.07
2023-10-20T23:03:29.639Z,7.57
2023-10-20T23:05:58.075Z,8.30
2023-10-20T23:08:27.992Z,9.40
2023-10-20T23:10:56.329Z,10.87
2023-10-20T23:13:24.811Z,8.97
2023-10-20T23:15:53.386Z,9.50
2023-10-20T23:18:23.527Z,8.37
2023-10-20T23:20:55.643Z,7.30
2023-10-20T23:23:24.128Z,7.77
2023-10-20T23:25:52.506Z,6.40
2023-10-20T23:28:21.188Z,8.20
2023-10-20T23:30:50.849Z,5.87
2023-10-20T23:33:19.622Z,5.53
2023-10-20T23:35:49.860Z,7.47
2023-10-20T23:38:19.591Z,6.37
2023-10-20T23:40:50.372Z,5.97
2023-10-20T23:43:18.652Z,10.53
2023-10-20T23:45:47.881Z,7.00
2023-10-20T23:48:16.324Z,5.80
2023-10-20T23:50:44.805Z,7.10
2023-10-20T23:53:14.921Z,6.97
2023-10-20T23:55:44.030Z,5.00
2023-10-20T23:58:12.589Z,5.23
